Time;durP1;ratioP1;P1;durP2;ratioP2;P2;SDS_P1;SDS_P2;PMS_P1;PMS_P2;Temp;Humidity;BMP_temperature;BMP_pressure;BME280_temperature;BME280_humidity;BME280_pressure;Samples;Min_cycle;Max_cycle;Signal;HPM_P1;HPM_P2
2022/08/28 00:01:02;;;;;;;40.78;21.83;;;;;;;;;;5053542;28;20413;-56
2022/08/28 00:03:28;;;;;;;44.03;22.48;;;;;;;;;;5052773;28;20508;-56
2022/08/28 00:05:53;;;;;;;40.20;22.42;;;;;;;;;;5057072;28;20032;-56
2022/08/28 00:08:19;;;;;;;48.17;25.48;;;;;;;;;;5073570;28;20028;-56
2022/08/28 00:10:44;;;;;;;47.13;24.42;;;;;;;;;;5069259;28;20037;-56
2022/08/28 00:13:17;;;;;;;42.10;24.17;;;;;;;;;;5059679;28;20104;-56
2022/08/28 00:15:44;;;;;;;47.88;25.35;;;;;;;;;;5073648;28;20035;-56
2022/08/28 00:18:10;;;;;;;41.58;23.75;;;;;;;;;;5073341;28;20397;-56
2022/08/28 00:20:36;;;;;;;51.05;26.92;;;;;;;;;;5069201;28;20386;-56
2022/08/28 00:23:03;;;;;;;48.08;25.30;;;;;;;;;;5060330;28;20025;-56
2022/08/28 00:25:29;;;;;;;41.92;24.77;;;;;;;;;;5073075;28;20490;-56
2022/08/28 00:27:59;;;;;;;50.55;27.30;;;;;;;;;;5072660;28;20064;-55
2022/08/28 00:30:41;;;;;;;46.20;24.88;;;;;;;;;;5056783;28;20016;-55
2022/08/28 00:33:11;;;;;;;52.53;26.13;;;;;;;;;;5062060;28;20033;-56
2022/08/28 00:35:39;;;;;;;47.53;25.38;;;;;;;;;;5051650;28;20111;-56
2022/08/28 00:38:05;;;;;;;47.70;25.80;;;;;;;;;;5071602;28;20028;-57
2022/08/28 00:40:31;;;;;;;47.35;24.40;;;;;;;;;;5072884;28;20090;-57
2022/08/28 00:42:57;;;;;;;47.35;25.08;;;;;;;;;;5071577;28;20553;-56
2022/08/28 00:45:24;;;;;;;47.05;25.70;;;;;;;;;;5072668;28;20039;-56
2022/08/28 00:47:51;;;;;;;46.90;24.88;;;;;;;;;;5056344;28;20029;-57
2022/08/28 00:50:21;;;;;;;50.65;26.77;;;;;;;;;;5072532;28;20102;-57
2022/08/28 00:52:51;;;;;;;46.55;25.85;;;;;;;;;;5071613;28;20036;-57
2022/08/28 00:55:21;;;;;;;43.70;24.52;;;;;;;;;;5072780;28;20016;-57
2022/08/28 00:57:49;;;;;;;44.92;25.38;;;;;;;;;;5069437;28;20103;-57
2022/08/28 01:00:23;;;;;;;39.05;22.95;;;;;;;;;;5059342;28;20043;-56
2022/08/28 01:02:50;;;;;;;43.03;23.23;;;;;;;;;;5051604;28;20128;-57
2022/08/28 01:05:16;;;;;;;34.63;20.00;;;;;;;;;;5052355;28;20035;-57
2022/08/28 01:07:43;;;;;;;39.65;21.83;;;;;;;;;;5052689;28;20028;-56
2022/08/28 01:10:12;;;;;;;41.08;22.10;;;;;;;;;;5051071;28;20060;-57
2022/08/28 01:12:37;;;;;;;39.22;21.75;;;;;;;;;;5051521;28;20025;-56
2022/08/28 01:15:11;;;;;;;40.72;23.08;;;;;;;;;;5051819;28;20086;-57
2022/08/28 01:17:43;;;;;;;45.30;24.02;;;;;;;;;;5056099;28;20024;-57
2022/08/28 01:20:13;;;;;;;46.45;24.05;;;;;;;;;;5072141;28;20444;-57
2022/08/28 01:22:42;;;;;;;43.95;24.15;;;;;;;;;;5058140;28;20017;-56
2022/08/28 01:25:15;;;;;;;46.42;22.58;;;;;;;;;;5068229;28;20036;-57
2022/08/28 01:27:41;;;;;;;43.28;24.15;;;;;;;;;;5051971;28;20033;-56
2022/08/28 01:30:12;;;;;;;39.55;21.90;;;;;;;;;;5061089;28;20029;-56
2022/08/28 01:32:42;;;;;;;50.33;23.40;;;;;;;;;;5071228;28;20174;-56
2022/08/28 01:35:16;;;;;;;40.38;22.35;;;;;;;;;;5069292;28;20028;-57
2022/08/28 01:37:42;;;;;;;45.72;24.42;;;;;;;;;;5050699;28;20033;-56
2022/08/28 01:40:09;;;;;;;43.72;24.00;;;;;;;;;;5062901;28;20032;-56
2022/08/28 01:42:40;;;;;;;43.55;23.58;;;;;;;;;;5070899;28;20016;-56
2022/08/28 01:45:09;;;;;;;44.40;23.88;;;;;;;;;;5067612;28;20386;-57
2022/08/28 01:47:38;;;;;;;39.95;22.15;;;;;;;;;;5068365;28;20020;-56
2022/08/28 01:50:06;;;;;;;42.67;23.60;;;;;;;;;;5059505;28;20066;-57
2022/08/28 01:52:32;;;;;;;45.17;24.25;;;;;;;;;;5050250;28;20082;-56
2022/08/28 01:54:58;;;;;;;45.55;22.73;;;;;;;;;;5055229;28;20485;-57
2022/08/28 01:57:24;;;;;;;41.15;21.75;;;;;;;;;;5064133;28;20031;-56
2022/08/28 01:59:50;;;;;;;41.67;22.27;;;;;;;;;;5050939;28;20024;-56
2022/08/28 02:02:16;;;;;;;39.72;22.02;;;;;;;;;;5065967;28;20025;-56
2022/08/28 02:04:41;;;;;;;42.47;21.42;;;;;;;;;;5071348;28;20032;-56
2022/08/28 02:07:07;;;;;;;39.60;20.65;;;;;;;;;;5071565;28;20081;-56
2022/08/28 02:09:32;;;;;;;40.47;21.13;;;;;;;;;;5060673;28;20066;-56
2022/08/28 02:11:58;;;;;;;41.05;21.80;;;;;;;;;;5065050;28;20082;-56
2022/08/28 02:14:23;;;;;;;44.30;21.73;;;;;;;;;;5070946;28;20044;-57
2022/08/28 02:16:49;;;;;;;42.45;21.42;;;;;;;;;;5071576;28;20093;-56
2022/08/28 02:19:14;;;;;;;51.88;25.17;;;;;;;;;;5071273;28;20021;-57
2022/08/28 02:21:40;;;;;;;50.97;24.63;;;;;;;;;;5057372;28;20031;-57
2022/08/28 02:24:06;;;;;;;49.08;23.92;;;;;;;;;;5050941;28;20021;-57
2022/08/28 02:26:32;;;;;;;48.03;24.70;;;;;;;;;;5051355;28;20021;-57
2022/08/28 02:28:57;;;;;;;48.55;24.55;;;;;;;;;;5050729;28;20479;-57
2022/08/28 02:31:24;;;;;;;51.63;25.02;;;;;;;;;;5050526;28;20028;-57
2022/08/28 02:33:49;;;;;;;52.55;26.35;;;;;;;;;;5067141;28;20025;-56
2022/08/28 02:36:15;;;;;;;46.75;24.00;;;;;;;;;;5067219;28;20017;-56
2022/08/28 02:38:42;;;;;;;47.75;25.10;;;;;;;;;;5051020;28;20023;-56
2022/08/28 02:41:07;;;;;;;54.20;26.45;;;;;;;;;;5062771;28;20027;-56
2022/08/28 02:43:33;;;;;;;52.92;25.77;;;;;;;;;;5058703;28;20016;-56
2022/08/28 02:45:58;;;;;;;55.35;26.90;;;;;;;;;;5054749;28;20020;-57
2022/08/28 02:48:31;;;;;;;57.78;26.85;;;;;;;;;;5071047;28;20444;-56
2022/08/28 02:51:02;;;;;;;64.10;30.02;;;;;;;;;;5071126;28;20024;-57
2022/08/28 02:53:28;;;;;;;57.53;27.80;;;;;;;;;;5070158;28;20035;-57
2022/08/28 02:55:54;;;;;;;50.90;25.27;;;;;;;;;;5054740;28;20024;-57
2022/08/28 02:58:19;;;;;;;49.00;23.50;;;;;;;;;;5063071;28;20414;-56
2022/08/28 03:00:45;;;;;;;50.08;24.02;;;;;;;;;;5062062;28;20024;-56
2022/08/28 03:03:10;;;;;;;58.53;26.33;;;;;;;;;;5070941;28;20020;-56
2022/08/28 03:05:35;;;;;;;56.35;27.08;;;;;;;;;;5073387;28;20027;-56
2022/08/28 03:08:01;;;;;;;62.78;28.30;;;;;;;;;;5068210;28;20032;-57
2022/08/28 03:10:27;;;;;;;62.72;27.02;;;;;;;;;;5054801;28;20583;-56
2022/08/28 03:12:52;;;;;;;63.47;27.65;;;;;;;;;;5053217;28;20029;-56
2022/08/28 03:15:18;;;;;;;60.00;27.27;;;;;;;;;;5055869;28;20223;-56
2022/08/28 03:17:43;;;;;;;63.05;27.02;;;;;;;;;;5068208;28;20032;-56
2022/08/28 03:20:11;;;;;;;65.65;28.65;;;;;;;;;;5052984;28;20501;-56
2022/08/28 03:25:21;;;;;;;74.10;30.73;;;;;;;;;;5057692;28;20043;-57
2022/08/28 03:27:47;;;;;;;86.97;32.53;;;;;;;;;;5073886;28;20464;-56
2022/08/28 03:30:13;;;;;;;87.57;34.67;;;;;;;;;;5074096;28;20071;-56
2022/08/28 03:32:39;;;;;;;83.50;32.95;;;;;;;;;;5073281;28;20028;-56
2022/08/28 03:35:05;;;;;;;79.68;32.85;;;;;;;;;;5071906;28;20058;-56
2022/08/28 03:37:30;;;;;;;88.63;34.28;;;;;;;;;;5060540;28;20381;-56
2022/08/28 03:39:56;;;;;;;81.03;31.73;;;;;;;;;;5064147;28;20029;-57
2022/08/28 03:42:21;;;;;;;81.00;33.17;;;;;;;;;;5066901;28;20505;-56
2022/08/28 03:44:48;;;;;;;89.70;35.80;;;;;;;;;;5072179;28;20157;-57
2022/08/28 03:47:14;;;;;;;92.78;35.67;;;;;;;;;;5058989;28;20474;-56
2022/08/28 03:49:40;;;;;;;85.13;34.47;;;;;;;;;;5074271;28;20032;-56
2022/08/28 03:52:05;;;;;;;91.20;35.25;;;;;;;;;;5060220;28;20025;-56
2022/08/28 03:54:31;;;;;;;85.80;32.83;;;;;;;;;;5069018;28;20028;-56
2022/08/28 03:56:57;;;;;;;84.20;32.63;;;;;;;;;;5073893;28;20100;-56
2022/08/28 03:59:22;;;;;;;83.18;33.50;;;;;;;;;;5065361;28;20017;-57
2022/08/28 04:01:47;;;;;;;84.95;34.30;;;;;;;;;;5064731;28;20171;-57
2022/08/28 04:04:14;;;;;;;83.13;32.83;;;;;;;;;;5057470;28;20045;-56
2022/08/28 04:06:40;;;;;;;91.35;34.25;;;;;;;;;;5053634;28;20082;-57
2022/08/28 04:09:05;;;;;;;95.30;34.80;;;;;;;;;;5060614;28;20031;-57
2022/08/28 04:11:35;;;;;;;96.75;36.47;;;;;;;;;;5061899;28;20024;-56
2022/08/28 04:14:01;;;;;;;94.75;37.53;;;;;;;;;;5052351;28;20028;-56
2022/08/28 04:16:26;;;;;;;100.18;37.15;;;;;;;;;;5063388;28;20103;-56
2022/08/28 04:18:52;;;;;;;97.55;36.00;;;;;;;;;;5066494;28;20029;-56
2022/08/28 04:21:21;;;;;;;102.35;37.83;;;;;;;;;;5063339;28;20066;-57
2022/08/28 04:23:46;;;;;;;111.65;38.35;;;;;;;;;;5058484;28;20047;-56
2022/08/28 04:26:15;;;;;;;107.93;39.67;;;;;;;;;;5053300;28;20495;-56
2022/08/28 04:28:41;;;;;;;88.20;34.70;;;;;;;;;;5059196;28;20508;-56
2022/08/28 04:31:07;;;;;;;92.32;35.42;;;;;;;;;;5062597;28;20062;-56
2022/08/28 04:33:33;;;;;;;90.85;36.05;;;;;;;;;;5066281;28;20103;-57
2022/08/28 04:36:02;;;;;;;90.05;35.17;;;;;;;;;;5071389;28;20020;-56
2022/08/28 04:38:28;;;;;;;89.70;35.80;;;;;;;;;;5053142;28;20559;-56
2022/08/28 04:40:53;;;;;;;93.20;35.92;;;;;;;;;;5062923;28;20115;-57
2022/08/28 04:43:20;;;;;;;97.00;36.58;;;;;;;;;;5060086;28;20060;-56
2022/08/28 04:45:45;;;;;;;95.93;35.58;;;;;;;;;;5071391;28;20107;-56
2022/08/28 04:48:11;;;;;;;95.13;36.65;;;;;;;;;;5072758;28;20124;-57
2022/08/28 04:50:42;;;;;;;89.65;35.83;;;;;;;;;;5072641;28;20545;-57
2022/08/28 04:53:08;;;;;;;95.75;38.30;;;;;;;;;;5058101;28;20033;-57
2022/08/28 04:55:33;;;;;;;96.30;36.72;;;;;;;;;;5068654;28;20104;-57
2022/08/28 04:57:59;;;;;;;96.30;35.63;;;;;;;;;;5052132;28;20398;-57
2022/08/28 05:00:25;;;;;;;96.32;36.63;;;;;;;;;;5052342;28;20461;-57
2022/08/28 05:02:50;;;;;;;96.50;37.35;;;;;;;;;;5051932;28;20092;-57
2022/08/28 05:05:16;;;;;;;92.13;34.65;;;;;;;;;;5056799;28;20025;-57
2022/08/28 05:07:41;;;;;;;91.95;36.60;;;;;;;;;;5072289;28;20115;-56
2022/08/28 05:10:07;;;;;;;87.75;34.28;;;;;;;;;;5063217;28;20120;-57
2022/08/28 05:12:34;;;;;;;87.30;34.60;;;;;;;;;;5051503;28;20441;-56
2022/08/28 05:15:00;;;;;;;80.40;32.17;;;;;;;;;;5067086;28;20028;-56
2022/08/28 05:17:26;;;;;;;88.55;34.33;;;;;;;;;;5055957;28;20021;-57
2022/08/28 05:19:53;;;;;;;74.30;32.10;;;;;;;;;;5065166;28;20037;-58
2022/08/28 05:22:18;;;;;;;78.00;32.70;;;;;;;;;;5051374;28;20440;-58
2022/08/28 05:24:44;;;;;;;71.93;30.80;;;;;;;;;;5066565;28;20329;-58
2022/08/28 05:27:09;;;;;;;70.25;31.15;;;;;;;;;;5055000;28;20394;-57
2022/08/28 05:29:35;;;;;;;70.68;31.15;;;;;;;;;;5065292;28;20073;-58
2022/08/28 05:32:00;;;;;;;67.63;29.73;;;;;;;;;;5060867;28;20039;-57
2022/08/28 05:34:26;;;;;;;62.67;29.42;;;;;;;;;;5071639;28;20024;-57
2022/08/28 05:36:51;;;;;;;66.00;28.35;;;;;;;;;;5072032;28;20043;-58
2022/08/28 05:39:16;;;;;;;58.22;27.80;;;;;;;;;;5066960;28;20029;-58
2022/08/28 05:41:44;;;;;;;57.60;27.20;;;;;;;;;;5059548;28;20070;-58
2022/08/28 05:44:12;;;;;;;60.03;26.95;;;;;;;;;;5070969;28;20024;-57
2022/08/28 05:46:40;;;;;;;57.95;26.75;;;;;;;;;;5054997;28;20103;-57
2022/08/28 05:49:07;;;;;;;64.15;28.67;;;;;;;;;;5056240;28;20119;-57
2022/08/28 05:51:34;;;;;;;62.15;28.38;;;;;;;;;;5070874;28;20077;-57
2022/08/28 05:54:00;;;;;;;55.50;27.00;;;;;;;;;;5058743;28;20025;-57
2022/08/28 05:56:32;;;;;;;57.63;27.23;;;;;;;;;;5068054;28;20024;-57
2022/08/28 05:58:59;;;;;;;54.72;25.77;;;;;;;;;;5067120;28;20029;-57
2022/08/28 06:01:28;;;;;;;57.38;27.05;;;;;;;;;;5059616;28;20033;-58
2022/08/28 06:03:55;;;;;;;56.85;25.30;;;;;;;;;;5071340;28;20031;-57
2022/08/28 06:06:23;;;;;;;58.63;27.85;;;;;;;;;;5071572;28;20032;-57
2022/08/28 06:08:58;;;;;;;58.65;27.42;;;;;;;;;;5066327;28;20052;-58
2022/08/28 06:11:28;;;;;;;61.53;26.73;;;;;;;;;;5061114;28;20405;-57
2022/08/28 06:13:53;;;;;;;56.08;26.33;;;;;;;;;;5070932;28;20032;-57
2022/08/28 06:16:19;;;;;;;59.65;27.48;;;;;;;;;;5069420;28;20093;-57
2022/08/28 06:18:45;;;;;;;57.40;27.50;;;;;;;;;;5057181;28;20020;-57
2022/08/28 06:21:11;;;;;;;54.67;26.67;;;;;;;;;;5061437;28;20035;-57
2022/08/28 06:23:36;;;;;;;60.03;26.90;;;;;;;;;;5050487;28;20021;-58
2022/08/28 06:26:04;;;;;;;55.08;26.98;;;;;;;;;;5068821;28;20052;-57
2022/08/28 06:28:30;;;;;;;54.92;27.33;;;;;;;;;;5065657;28;20029;-58
2022/08/28 06:30:56;;;;;;;55.50;27.92;;;;;;;;;;5051122;28;20024;-57
2022/08/28 06:33:23;;;;;;;50.15;25.60;;;;;;;;;;5063214;28;20052;-57
2022/08/28 06:35:52;;;;;;;51.38;25.13;;;;;;;;;;5070293;28;20478;-58
2022/08/28 06:38:19;;;;;;;52.47;25.92;;;;;;;;;;5058715;28;20039;-58
2022/08/28 06:40:48;;;;;;;52.85;24.80;;;;;;;;;;5066419;28;20033;-57
2022/08/28 06:43:15;;;;;;;49.05;25.08;;;;;;;;;;5055559;28;20023;-58
2022/08/28 06:45:42;;;;;;;49.67;25.05;;;;;;;;;;5074014;28;20021;-57
2022/08/28 06:48:09;;;;;;;49.20;24.63;;;;;;;;;;5054958;28;20540;-58
2022/08/28 06:50:40;;;;;;;52.88;24.38;;;;;;;;;;5054902;28;20502;-58
2022/08/28 06:53:10;;;;;;;44.10;23.27;;;;;;;;;;5052698;28;20035;-56
2022/08/28 06:55:36;;;;;;;42.10;22.10;;;;;;;;;;5072901;28;20032;-56
2022/08/28 06:58:04;;;;;;;50.47;24.15;;;;;;;;;;5073195;28;20036;-56
2022/08/28 07:00:30;;;;;;;49.30;24.50;;;;;;;;;;5074449;28;20444;-56
2022/08/28 07:02:55;;;;;;;43.88;23.40;;;;;;;;;;5073947;28;20078;-56
2022/08/28 07:05:21;;;;;;;49.22;23.75;;;;;;;;;;5057370;28;20035;-55
2022/08/28 07:07:46;;;;;;;47.78;23.60;;;;;;;;;;5054940;28;20086;-56
2022/08/28 07:10:12;;;;;;;46.15;22.88;;;;;;;;;;5054605;28;20048;-56
2022/08/28 07:12:38;;;;;;;47.03;23.10;;;;;;;;;;5066094;28;20025;-58
2022/08/28 07:15:05;;;;;;;41.50;21.35;;;;;;;;;;5060500;28;20033;-57
2022/08/28 07:17:30;;;;;;;42.17;21.83;;;;;;;;;;5074590;28;20020;-58
2022/08/28 07:19:56;;;;;;;42.58;21.45;;;;;;;;;;5065285;28;20120;-58
2022/08/28 07:22:21;;;;;;;40.47;22.85;;;;;;;;;;5065062;28;20012;-57
2022/08/28 07:24:47;;;;;;;40.63;20.23;;;;;;;;;;5058824;28;20029;-57
2022/08/28 07:27:13;;;;;;;46.92;23.10;;;;;;;;;;5070683;28;20017;-57
2022/08/28 07:29:39;;;;;;;46.92;22.35;;;;;;;;;;5053887;28;20490;-57
2022/08/28 07:32:04;;;;;;;45.83;22.40;;;;;;;;;;5063837;28;20027;-57
2022/08/28 07:34:30;;;;;;;35.15;20.17;;;;;;;;;;5074009;28;20016;-57
2022/08/28 07:37:02;;;;;;;45.80;22.40;;;;;;;;;;5074266;28;20042;-58
2022/08/28 07:39:28;;;;;;;42.60;22.40;;;;;;;;;;5074080;28;20028;-57
2022/08/28 07:41:53;;;;;;;47.67;22.83;;;;;;;;;;5073470;28;20040;-57
2022/08/28 07:47:05;;;;;;;44.85;22.88;;;;;;;;;;5070090;28;20465;-57
2022/08/28 07:49:33;;;;;;;39.10;21.73;;;;;;;;;;5061269;28;20481;-57
2022/08/28 07:51:59;;;;;;;38.13;20.55;;;;;;;;;;5060520;28;20471;-58
2022/08/28 07:54:24;;;;;;;39.65;20.13;;;;;;;;;;5054008;28;20032;-58
2022/08/28 07:56:50;;;;;;;42.00;20.88;;;;;;;;;;5057733;28;20328;-57
2022/08/28 07:59:16;;;;;;;36.92;19.98;;;;;;;;;;5073259;28;20028;-58
2022/08/28 08:01:45;;;;;;;42.00;20.42;;;;;;;;;;5072829;28;20024;-58
2022/08/28 08:04:12;;;;;;;47.83;21.67;;;;;;;;;;5057864;28;20514;-57
2022/08/28 08:06:39;;;;;;;37.90;19.88;;;;;;;;;;5073290;28;20044;-58
2022/08/28 08:09:08;;;;;;;37.13;19.92;;;;;;;;;;5073562;28;20024;-57
2022/08/28 08:11:34;;;;;;;37.20;19.05;;;;;;;;;;5060800;28;20394;-57
2022/08/28 08:14:03;;;;;;;36.08;19.52;;;;;;;;;;5068339;28;20036;-58
2022/08/28 08:16:29;;;;;;;35.13;19.67;;;;;;;;;;5057293;28;20025;-58
2022/08/28 08:18:55;;;;;;;35.33;18.65;;;;;;;;;;5073268;28;20031;-58
2022/08/28 08:21:21;;;;;;;41.72;18.85;;;;;;;;;;5072717;28;20017;-58
2022/08/28 08:23:47;;;;;;;31.92;17.95;;;;;;;;;;5057531;28;20021;-58
2022/08/28 08:26:19;;;;;;;41.20;20.30;;;;;;;;;;5064471;28;20029;-58
2022/08/28 08:28:45;;;;;;;29.50;18.55;;;;;;;;;;5060111;28;20025;-57
2022/08/28 08:31:20;;;;;;;38.78;19.33;;;;;;;;;;5073046;28;20037;-58
2022/08/28 08:33:48;;;;;;;33.72;18.08;;;;;;;;;;5056347;28;20039;-58
2022/08/28 08:36:16;;;;;;;32.77;17.67;;;;;;;;;;5052998;28;20053;-57
2022/08/28 08:38:42;;;;;;;32.22;16.73;;;;;;;;;;5061387;28;20772;-58
2022/08/28 08:41:20;;;;;;;33.03;16.88;;;;;;;;;;5072805;28;20028;-58
2022/08/28 08:44:29;;;;;;;30.30;17.08;;;;;;;;;;5058686;28;20686;-58
2022/08/28 08:47:11;;;;;;;31.13;17.10;;;;;;;;;;5059340;28;20040;-58
2022/08/28 08:49:40;;;;;;;35.53;15.68;;;;;;;;;;5070114;28;20512;-58
2022/08/28 08:52:24;;;;;;;27.00;15.75;;;;;;;;;;5071745;28;20028;-58
2022/08/28 08:55:01;;;;;;;31.75;16.50;;;;;;;;;;5059405;28;20040;-58
2022/08/28 08:57:27;;;;;;;32.97;14.95;;;;;;;;;;5068861;28;20039;-57
2022/08/28 08:59:53;;;;;;;29.02;15.07;;;;;;;;;;5051839;28;20112;-58
2022/08/28 09:02:26;;;;;;;27.13;14.73;;;;;;;;;;5051904;28;20146;-58
2022/08/28 09:05:31;;;;;;;28.92;15.40;;;;;;;;;;5052283;28;20517;-58
2022/08/28 09:08:01;;;;;;;23.50;13.68;;;;;;;;;;5051196;28;20121;-58
2022/08/28 09:10:40;;;;;;;25.77;14.30;;;;;;;;;;5063066;28;20044;-58
2022/08/28 09:13:16;;;;;;;23.45;13.07;;;;;;;;;;5070750;28;20032;-58
2022/08/28 09:15:45;;;;;;;19.58;12.57;;;;;;;;;;5064076;28;20099;-58
2022/08/28 09:18:22;;;;;;;21.77;11.90;;;;;;;;;;5072253;28;20025;-58
2022/08/28 09:20:53;;;;;;;19.55;12.07;;;;;;;;;;5056956;28;20036;-58
2022/08/28 09:23:21;;;;;;;21.48;11.70;;;;;;;;;;5067551;28;20039;-58
2022/08/28 09:25:49;;;;;;;17.85;11.00;;;;;;;;;;5059578;28;20031;-58
2022/08/28 09:28:27;;;;;;;17.30;10.75;;;;;;;;;;5060008;28;20029;-58
2022/08/28 09:30:58;;;;;;;15.93;10.77;;;;;;;;;;5069138;28;20524;-58
2022/08/28 09:33:31;;;;;;;17.15;11.13;;;;;;;;;;5065813;28;20116;-57
2022/08/28 09:36:19;;;;;;;14.90;10.75;;;;;;;;;;5061968;28;20556;-57
2022/08/28 09:38:45;;;;;;;17.17;10.60;;;;;;;;;;5054523;28;20481;-58
2022/08/28 09:43:55;;;;;;;16.17;10.25;;;;;;;;;;5067514;28;20100;-58
2022/08/28 09:46:26;;;;;;;13.52;9.45;;;;;;;;;;5071863;28;20031;-58
2022/08/28 09:49:10;;;;;;;17.13;10.75;;;;;;;;;;5068261;28;20078;-58
2022/08/28 09:51:38;;;;;;;13.05;9.48;;;;;;;;;;5050922;28;20024;-58
2022/08/28 09:54:25;;;;;;;17.40;10.50;;;;;;;;;;5064733;28;20031;-58
2022/08/28 09:56:51;;;;;;;18.25;10.55;;;;;;;;;;5071691;28;20035;-58
2022/08/28 09:59:19;;;;;;;15.40;10.07;;;;;;;;;;5062818;28;20108;-57
2022/08/28 10:01:45;;;;;;;17.52;10.40;;;;;;;;;;5063125;28;20395;-58
2022/08/28 10:04:29;;;;;;;16.02;10.50;;;;;;;;;;5071208;28;20046;-58
2022/08/28 10:07:02;;;;;;;16.58;9.70;;;;;;;;;;5065302;28;20047;-58
2022/08/28 10:09:33;;;;;;;14.07;8.80;;;;;;;;;;5051549;28;20021;-58
2022/08/28 10:12:31;;;;;;;13.43;10.02;;;;;;;;;;5050221;28;20028;-58
2022/08/28 10:15:18;;;;;;;;;;;;;;;;;;5051157;28;20044;-58
2022/08/28 10:18:20;;;;;;;17.58;10.02;;;;;;;;;;5065620;28;20001;-57
2022/08/28 10:21:07;;;;;;;16.23;9.77;;;;;;;;;;5071359;28;20033;-58
2022/08/28 10:23:49;;;;;;;16.38;9.80;;;;;;;;;;5056705;28;20494;-58
2022/08/28 10:26:23;;;;;;;18.58;9.63;;;;;;;;;;5071506;28;20055;-58
2022/08/28 10:29:02;;;;;;;13.43;9.32;;;;;;;;;;5070931;28;20073;-58
2022/08/28 10:31:37;;;;;;;14.07;8.77;;;;;;;;;;5056355;28;20029;-58
2022/08/28 10:34:23;;;;;;;13.45;8.45;;;;;;;;;;5050924;28;20028;-57
2022/08/28 10:37:01;;;;;;;13.40;8.48;;;;;;;;;;5060980;28;20451;-57
2022/08/28 10:39:42;;;;;;;12.25;9.15;;;;;;;;;;5071318;28;20119;-58
2022/08/28 10:42:07;;;;;;;15.38;8.52;;;;;;;;;;5070253;28;20082;-57
2022/08/28 10:44:56;;;;;;;10.75;8.30;;;;;;;;;;5061880;28;20025;-58
2022/08/28 10:47:23;;;;;;;17.48;8.75;;;;;;;;;;5066603;28;20031;-58
2022/08/28 10:49:57;;;;;;;12.27;8.00;;;;;;;;;;5054799;28;20506;-58
2022/08/28 10:52:26;;;;;;;11.40;8.10;;;;;;;;;;5070005;28;20028;-58
2022/08/28 10:55:10;;;;;;;13.27;7.88;;;;;;;;;;5071043;28;20048;-58
2022/08/28 10:57:40;;;;;;;13.02;7.97;;;;;;;;;;5054818;28;20386;-58
2022/08/28 11:00:11;;;;;;;11.13;8.07;;;;;;;;;;5070459;28;20017;-58
2022/08/28 11:02:39;;;;;;;10.77;7.22;;;;;;;;;;5070751;28;20113;-58
2022/08/28 11:05:05;;;;;;;8.73;7.55;;;;;;;;;;5055181;28;20028;-58
2022/08/28 11:07:36;;;;;;;9.88;7.03;;;;;;;;;;5054189;28;20142;-58
2022/08/28 11:10:17;;;;;;;10.95;7.65;;;;;;;;;;5070891;28;20478;-58
2022/08/28 11:12:43;;;;;;;10.25;7.18;;;;;;;;;;5069969;28;20029;-58
2022/08/28 11:15:26;;;;;;;11.45;7.55;;;;;;;;;;5052914;28;20162;-58
2022/08/28 11:17:59;;;;;;;9.93;6.80;;;;;;;;;;5058229;28;20306;-58
2022/08/28 11:20:28;;;;;;;9.23;6.85;;;;;;;;;;5070671;28;20028;-57
2022/08/28 11:23:19;;;;;;;12.18;8.00;;;;;;;;;;5053427;28;20471;-58
2022/08/28 11:26:00;;;;;;;12.40;7.60;;;;;;;;;;5053808;28;20029;-58
2022/08/28 11:28:35;;;;;;;10.18;7.10;;;;;;;;;;5053993;28;20055;-58
2022/08/28 11:31:03;;;;;;;9.40;6.85;;;;;;;;;;5056273;28;20044;-58
2022/08/28 11:33:35;;;;;;;9.07;7.30;;;;;;;;;;5066906;28;20029;-58
2022/08/28 11:36:01;;;;;;;9.82;7.78;;;;;;;;;;5065252;28;20032;-58
2022/08/28 11:38:42;;;;;;;10.77;6.80;;;;;;;;;;5074089;28;20028;-58
2022/08/28 11:41:23;;;;;;;10.73;7.47;;;;;;;;;;5069604;28;20112;-58
2022/08/28 11:44:13;;;;;;;10.68;6.82;;;;;;;;;;5063811;28;20016;-58
2022/08/28 11:46:41;;;;;;;11.35;7.43;;;;;;;;;;5072315;28;20032;-58
2022/08/28 11:49:28;;;;;;;9.47;6.40;;;;;;;;;;5053981;28;20486;-58
2022/08/28 11:52:14;;;;;;;9.52;7.15;;;;;;;;;;5065455;28;20067;-58
2022/08/28 11:54:55;;;;;;;11.77;7.15;;;;;;;;;;5057445;28;20067;-58
2022/08/28 11:57:42;;;;;;;12.25;6.90;;;;;;;;;;5074142;28;20035;-58
2022/08/28 12:00:22;;;;;;;13.60;8.07;;;;;;;;;;5058034;28;20029;-58
2022/08/28 12:02:57;;;;;;;10.55;7.60;;;;;;;;;;5057768;28;20024;-58
2022/08/28 12:05:31;;;;;;;8.00;6.90;;;;;;;;;;5063413;28;20032;-58
2022/08/28 12:08:00;;;;;;;10.25;7.05;;;;;;;;;;5053739;28;20029;-58
2022/08/28 12:10:25;;;;;;;;;;;;;;;;;;5057023;28;20440;-58
2022/08/28 12:12:51;;;;;;;11.07;7.17;;;;;;;;;;5065425;28;19913;-58
2022/08/28 12:15:28;;;;;;;8.48;7.00;;;;;;;;;;5063925;28;20632;-58
2022/08/28 12:18:09;;;;;;;8.57;6.88;;;;;;;;;;5073168;28;20032;-58
2022/08/28 12:20:39;;;;;;;11.85;7.63;;;;;;;;;;5072142;28;20390;-57
2022/08/28 12:23:26;;;;;;;11.32;7.30;;;;;;;;;;5072649;28;20504;-58
2022/08/28 12:26:15;;;;;;;7.63;6.55;;;;;;;;;;5072643;28;20020;-58
2022/08/28 12:28:49;;;;;;;10.35;6.47;;;;;;;;;;5052923;28;20029;-57
2022/08/28 12:34:43;;;;;;;7.88;6.40;;;;;;;;;;5055143;28;20036;-58
2022/08/28 12:37:42;;;;;;;10.25;6.28;;;;;;;;;;5053081;28;20029;-58
2022/08/28 12:40:14;;;;;;;11.25;7.22;;;;;;;;;;5052965;28;20048;-58
2022/08/28 12:42:47;;;;;;;11.07;6.38;;;;;;;;;;5052582;28;20082;-58
2022/08/28 12:45:20;;;;;;;8.82;6.10;;;;;;;;;;5070665;28;20029;-58
2022/08/28 12:47:47;;;;;;;11.30;6.82;;;;;;;;;;5072967;28;20033;-58
2022/08/28 12:50:23;;;;;;;13.15;6.93;;;;;;;;;;5072738;28;20029;-58
2022/08/28 12:52:51;;;;;;;8.57;6.47;;;;;;;;;;5071816;28;20108;-58
2022/08/28 12:55:18;;;;;;;8.77;6.20;;;;;;;;;;5056292;28;20420;-58
2022/08/28 12:57:45;;;;;;;7.60;6.07;;;;;;;;;;5052814;28;20028;-58
2022/08/28 13:00:16;;;;;;;9.37;7.07;;;;;;;;;;5052473;28;20087;-59
2022/08/28 13:02:42;;;;;;;7.93;5.82;;;;;;;;;;5051902;28;20398;-58
2022/08/28 13:05:28;;;;;;;7.07;5.88;;;;;;;;;;5052544;28;20035;-58
2022/08/28 13:07:56;;;;;;;8.65;6.40;;;;;;;;;;5072461;28;20393;-59
2022/08/28 13:10:26;;;;;;;8.95;6.00;;;;;;;;;;5061723;28;20025;-58
2022/08/28 13:13:09;;;;;;;7.47;6.13;;;;;;;;;;5051145;28;20112;-57
2022/08/28 13:15:44;;;;;;;7.43;6.43;;;;;;;;;;5052362;28;20029;-57
2022/08/28 13:18:30;;;;;;;8.70;6.13;;;;;;;;;;5052041;28;20036;-58
2022/08/28 13:21:18;;;;;;;7.07;5.78;;;;;;;;;;5068223;28;20082;-58
2022/08/28 13:23:43;;;;;;;7.57;6.15;;;;;;;;;;5053710;28;20546;-58
2022/08/28 13:26:10;;;;;;;9.52;6.60;;;;;;;;;;5060870;28;20116;-58
2022/08/28 13:28:37;;;;;;;8.73;5.95;;;;;;;;;;5063853;28;20035;-58
2022/08/28 13:31:03;;;;;;;9.25;6.22;;;;;;;;;;5052051;28;20071;-58
2022/08/28 13:33:29;;;;;;;8.00;5.97;;;;;;;;;;5057738;28;20028;-58
2022/08/28 13:35:54;;;;;;;8.07;5.63;;;;;;;;;;5072042;28;20025;-58
2022/08/28 13:38:22;;;;;;;8.18;5.65;;;;;;;;;;5057429;28;20119;-58
2022/08/28 13:40:50;;;;;;;6.80;5.83;;;;;;;;;;5070316;28;20486;-58
2022/08/28 13:43:16;;;;;;;12.52;6.45;;;;;;;;;;5065787;28;20391;-57
2022/08/28 13:45:44;;;;;;;9.60;5.78;;;;;;;;;;5071872;28;20112;-58
2022/08/28 13:48:15;;;;;;;11.15;6.43;;;;;;;;;;5056686;28;20537;-57
2022/08/28 13:50:44;;;;;;;9.98;6.13;;;;;;;;;;5051822;28;20052;-58
2022/08/28 13:53:09;;;;;;;8.05;6.25;;;;;;;;;;5050811;28;20024;-58
2022/08/28 13:55:35;;;;;;;7.60;5.72;;;;;;;;;;5051931;28;20036;-58
2022/08/28 13:58:00;;;;;;;8.10;6.13;;;;;;;;;;5065365;28;20036;-58
2022/08/28 14:00:28;;;;;;;7.75;6.40;;;;;;;;;;5071436;28;20025;-58
2022/08/28 14:05:38;;;;;;;6.80;6.10;;;;;;;;;;5051582;28;20039;-58
2022/08/28 14:08:04;;;;;;;7.68;5.97;;;;;;;;;;5051689;28;20490;-58
2022/08/28 14:10:30;;;;;;;7.63;6.63;;;;;;;;;;5055089;28;20025;-57
2022/08/28 14:12:55;;;;;;;8.85;6.30;;;;;;;;;;5070080;28;20020;-58
2022/08/28 14:15:21;;;;;;;7.88;6.05;;;;;;;;;;5071398;28;20027;-58
2022/08/28 14:17:48;;;;;;;7.38;6.00;;;;;;;;;;5056001;28;20029;-57
2022/08/28 14:20:14;;;;;;;7.65;6.35;;;;;;;;;;5071086;28;20048;-57
2022/08/28 14:22:40;;;;;;;7.10;6.30;;;;;;;;;;5070410;28;20540;-58
2022/08/28 14:25:08;;;;;;;7.00;5.82;;;;;;;;;;5071264;28;20375;-58
2022/08/28 14:27:34;;;;;;;9.18;6.40;;;;;;;;;;5071362;28;20020;-58
2022/08/28 14:30:00;;;;;;;9.32;6.20;;;;;;;;;;5068242;28;20567;-58
2022/08/28 14:32:25;;;;;;;9.00;6.60;;;;;;;;;;5050843;28;20025;-58
2022/08/28 14:34:51;;;;;;;8.73;6.45;;;;;;;;;;5061203;28;20033;-58
2022/08/28 14:37:16;;;;;;;7.03;5.97;;;;;;;;;;5057155;28;20104;-58
2022/08/28 14:39:42;;;;;;;8.85;6.15;;;;;;;;;;5051287;28;20040;-58
2022/08/28 14:42:08;;;;;;;11.68;6.00;;;;;;;;;;5055778;28;20506;-58
2022/08/28 14:44:33;;;;;;;8.48;5.97;;;;;;;;;;5061641;28;20393;-58
2022/08/28 14:46:58;;;;;;;8.98;6.32;;;;;;;;;;5063961;28;20199;-58
2022/08/28 14:49:25;;;;;;;7.32;5.93;;;;;;;;;;5070612;28;20363;-58
2022/08/28 14:51:52;;;;;;;10.23;5.75;;;;;;;;;;5050174;28;20402;-58